Time;durP1;ratioP1;P1;durP2;ratioP2;P2;SDS_P1;SDS_P2;PMS_P1;PMS_P2;Temp;Humidity;BMP_temperature;BMP_pressure;BME280_temperature;BME280_humidity;BME280_pressure;Samples;Min_cycle;Max_cycle;Signal;HPM_P1;HPM_P2
2022/08/11 00:02:01;;;;;;;3.47;1.90;;;;;17.10;94696.00;;;;7393921;19;20260;-76
2022/08/11 00:04:35;;;;;;;5.13;2.05;;;;;17.20;94690.00;;;;7395148;19;20861;-77
2022/08/11 00:07:23;;;;;;;6.43;1.90;;;;;17.20;94685.00;;;;7394194;19;20619;-76
2022/08/11 00:09:58;;;;;;;4.10;1.83;;;;;17.30;94677.00;;;;7394044;19;20152;-76
2022/08/11 00:12:32;;;;;;;2.88;1.98;;;;;17.40;94684.00;;;;7396588;19;20619;-77
2022/08/11 00:15:01;;;;;;;3.45;1.70;;;;;17.40;94681.00;;;;7397045;19;20141;-77
2022/08/11 00:17:32;;;;;;;2.13;1.65;;;;;17.40;94680.00;;;;7393648;19;20156;-76
2022/08/11 00:20:12;;;;;;;3.03;1.83;;;;;17.40;94681.00;;;;7394171;19;20151;-76
2022/08/11 00:22:45;;;;;;;2.08;1.80;;;;;17.30;94682.00;;;;7394231;19;20219;-76
2022/08/11 00:25:20;;;;;;;2.00;1.80;;;;;17.20;94680.00;;;;7393537;19;20152;-77
2022/08/11 00:27:48;;;;;;;2.50;1.83;;;;;17.20;94681.00;;;;7393739;19;20212;-78
2022/08/11 00:30:16;;;;;;;1.92;1.70;;;;;17.20;94693.00;;;;7393875;19;20204;-76
2022/08/11 00:32:57;;;;;;;3.08;1.90;;;;;17.20;94696.00;;;;7395356;19;20489;-76
2022/08/11 00:35:30;;;;;;;1.98;1.73;;;;;17.30;94697.00;;;;7395093;19;20587;-76
2022/08/11 00:38:28;;;;;;;5.80;2.08;;;;;17.30;94695.00;;;;7393875;19;20144;-75
2022/08/11 00:41:20;;;;;;;7.10;1.83;;;;;17.20;94694.00;;;;7394518;19;20178;-78
2022/08/11 00:44:20;;;;;;;4.03;1.80;;;;;17.10;94696.00;;;;7394367;19;20224;-77
2022/08/11 00:47:20;;;;;;;4.57;2.00;;;;;17.10;94696.00;;;;7394839;19;20151;-77
2022/08/11 00:50:12;;;;;;;2.92;1.70;;;;;17.10;94693.00;;;;7394364;19;20128;-78
2022/08/11 00:56:19;;;;;;;2.35;1.85;;;;;17.10;94682.00;;;;7384178;19;20624;-78
2022/08/11 00:59:32;;;;;;;6.63;2.20;;;;;17.10;94688.00;;;;7391981;19;20169;-77
2022/08/11 01:02:39;;;;;;;3.53;1.90;;;;;17.10;94681.00;;;;7396875;19;20543;-77
2022/08/11 01:05:46;;;;;;;5.30;2.17;;;;;17.10;94681.00;;;;7395519;19;20216;-78
2022/08/11 01:08:26;;;;;;;5.07;2.05;;;;;17.00;94688.00;;;;7391533;19;20193;-78
2022/08/11 01:11:28;;;;;;;4.05;1.80;;;;;17.00;94689.00;;;;7394330;19;20153;-79
2022/08/11 01:14:37;;;;;;;2.47;1.90;;;;;17.00;94685.00;;;;7398035;19;20141;-78
2022/08/11 01:17:51;;;;;;;3.97;1.80;;;;;17.00;94688.00;;;;7393511;19;20627;-79
2022/08/11 01:20:44;;;;;;;2.20;2.00;;;;;17.00;94685.00;;;;7392557;19;20600;-78
2022/08/11 01:23:36;;;;;;;2.05;1.83;;;;;17.00;94680.00;;;;7393337;19;20129;-78
2022/08/11 01:26:41;;;;;;;4.20;2.20;;;;;16.90;94683.00;;;;7391378;19;20219;-78
2022/08/11 01:29:40;;;;;;;2.95;2.10;;;;;16.90;94689.00;;;;7394062;19;20148;-79
2022/08/11 01:33:05;;;;;;;2.60;1.90;;;;;16.70;94682.00;;;;7392267;19;20608;-78
2022/08/11 01:36:14;;;;;;;3.38;2.00;;;;;16.70;94680.00;;;;7394812;19;20162;-79
2022/08/11 01:39:16;;;;;;;2.58;2.00;;;;;16.70;94671.00;;;;7393726;19;20148;-78
2022/08/11 01:45:12;;;;;;;2.47;2.10;;;;;16.70;94675.00;;;;7397006;19;20158;-78
2022/08/11 01:48:19;;;;;;;5.40;2.08;;;;;16.80;94675.00;;;;7394145;19;20151;-77
2022/08/11 01:51:16;;;;;;;2.40;2.03;;;;;16.90;94677.00;;;;7392255;19;20140;-77
2022/08/11 01:54:06;;;;;;;4.47;2.00;;;;;16.90;94674.00;;;;7394128;19;20139;-77
2022/08/11 01:56:45;;;;;;;3.10;2.33;;;;;16.90;94670.00;;;;7394895;19;20141;-79
2022/08/11 01:59:33;;;;;;;6.65;2.30;;;;;17.00;94669.00;;;;7393632;19;20151;-80
2022/08/11 02:02:44;;;;;;;4.00;1.83;;;;;16.90;94671.00;;;;7393662;19;20615;-79
2022/08/11 02:05:39;;;;;;;2.75;2.15;;;;;16.90;94659.00;;;;7395701;19;20157;-79
2022/08/11 02:08:37;;;;;;;3.40;2.30;;;;;16.90;94665.00;;;;7397555;19;20164;-77
2022/08/11 02:11:34;;;;;;;2.53;2.13;;;;;16.90;94661.00;;;;7400084;19;20154;-78
2022/08/11 02:14:45;;;;;;;5.07;2.17;;;;;16.70;94656.00;;;;7398017;19;20157;-77
2022/08/11 02:17:48;;;;;;;3.17;2.20;;;;;16.70;94662.00;;;;7401122;19;20133;-78
2022/08/11 02:23:58;;;;;;;3.85;1.80;;;;;16.60;94660.00;;;;7400414;19;20133;-77
2022/08/11 02:26:45;;;;;;;4.57;2.10;;;;;16.50;94656.00;;;;7398995;19;20133;-78
2022/08/11 02:30:03;;;;;;;2.35;2.15;;;;;16.40;94655.00;;;;7401646;19;20160;-78
2022/08/11 02:33:24;;;;;;;5.22;2.25;;;;;16.50;94649.00;;;;7396794;19;20201;-77
2022/08/11 02:36:18;;;;;;;3.05;2.20;;;;;16.40;94643.00;;;;7401809;19;20188;-78
2022/08/11 02:38:58;;;;;;;7.38;1.98;;;;;16.30;94639.00;;;;7398630;19;20128;-77
2022/08/11 02:45:28;;;;;;;3.40;2.00;;;;;16.30;94642.00;;;;7400616;19;20637;-78
2022/08/11 02:51:23;;;;;;;3.90;2.53;;;;;16.30;94642.00;;;;7399315;19;20469;-76
2022/08/11 02:54:09;;;;;;;5.43;2.22;;;;;16.30;94639.00;;;;7402691;19;20688;-78
2022/08/11 02:56:58;;;;;;;6.80;2.30;;;;;16.30;94637.00;;;;7398498;19;20132;-77
2022/08/11 02:59:53;;;;;;;2.97;2.20;;;;;16.30;94644.00;;;;7399717;19;20491;-77
2022/08/11 03:02:40;;;;;;;3.60;2.25;;;;;16.30;94638.00;;;;7395862;19;20182;-77
2022/08/11 03:05:44;;;;;;;3.55;2.50;;;;;16.40;94646.00;;;;7402413;19;20607;-76
2022/08/11 03:08:51;;;;;;;4.00;2.25;;;;;16.40;94636.00;;;;7395658;19;20575;-78
2022/08/11 03:19:12;;;;;;;4.65;2.58;;;;;16.70;94648.00;;;;7399797;19;20603;-77
2022/08/11 03:22:00;;;;;;;2.88;2.55;;;;;16.70;94644.00;;;;7402198;19;20148;-77
2022/08/11 03:24:53;;;;;;;6.10;2.47;;;;;16.50;94644.00;;;;7405100;19;20802;-78
2022/08/11 03:27:27;;;;;;;6.03;2.00;;;;;16.50;94644.00;;;;7400792;19;20153;-78
2022/08/11 03:30:11;;;;;;;3.30;2.28;;;;;16.40;94643.00;;;;7401845;19;20204;-77
2022/08/11 03:36:00;;;;;;;4.47;2.40;;;;;16.40;94646.00;;;;7400787;19;20655;-78
2022/08/11 03:38:55;;;;;;;3.55;1.92;;;;;16.30;94647.00;;;;7396919;19;20630;-78
2022/08/11 03:41:54;;;;;;;6.30;2.80;;;;;16.30;94654.00;;;;7398800;19;20644;-77
2022/08/11 03:44:46;;;;;;;5.55;2.28;;;;;16.10;94658.00;;;;7396909;19;20161;-78
2022/08/11 03:47:52;;;;;;;5.07;2.25;;;;;16.00;94655.00;;;;7397986;19;20608;-77
2022/08/11 03:50:28;;;;;;;3.17;2.08;;;;;16.00;94656.00;;;;7393205;19;20148;-76
2022/08/11 03:53:26;;;;;;;8.23;2.60;;;;;15.90;94655.00;;;;7396888;19;20132;-78
2022/08/11 03:56:22;;;;;;;4.60;2.38;;;;;15.80;94650.00;;;;7398322;19;20583;-78
2022/08/11 03:59:31;;;;;;;3.55;2.60;;;;;15.80;94652.00;;;;7395711;19;20156;-78
2022/08/11 04:02:28;;;;;;;4.53;2.30;;;;;15.60;94654.00;;;;7393078;19;20686;-78
2022/08/11 04:05:19;;;;;;;5.70;2.53;;;;;15.50;94655.00;;;;7399575;19;20138;-77
2022/08/11 04:08:24;;;;;;;4.50;3.08;;;;;15.50;94656.00;;;;7397131;19;20172;-78
2022/08/11 04:11:38;;;;;;;6.85;2.40;;;;;15.50;94654.00;;;;7397004;19;20137;-77
2022/08/11 04:17:52;;;;;;;6.45;2.55;;;;;15.50;94650.00;;;;7397789;19;20152;-77
2022/08/11 04:20:43;;;;;;;5.88;2.40;;;;;15.70;94642.00;;;;7394899;19;20494;-78
2022/08/11 04:24:02;;;;;;;2.70;2.35;;;;;15.80;94637.00;;;;7394376;19;20133;-78
2022/08/11 04:27:25;;;;;;;3.47;2.67;;;;;15.90;94645.00;;;;7393619;19;20149;-79
2022/08/11 04:30:12;;;;;;;3.00;2.45;;;;;15.80;94650.00;;;;7391591;19;20624;-79
2022/08/11 04:33:01;;;;;;;4.75;2.72;;;;;15.90;94644.00;;;;7394161;19;20627;-79
2022/08/11 04:35:43;;;;;;;4.35;2.60;;;;;15.90;94645.00;;;;7395093;19;20148;-79
2022/08/11 04:38:48;;;;;;;6.13;2.38;;;;;15.80;94641.00;;;;7392365;19;20179;-77
2022/08/11 04:45:24;;;;;;;3.22;2.53;;;;;16.00;94652.00;;;;7397695;19;20234;-77
2022/08/11 05:07:24;;;;;;;3.78;2.47;;;;;16.70;94649.00;;;;7394580;19;20159;-78
2022/08/11 05:10:44;;;;;;;10.05;2.40;;;;;16.80;94648.00;;;;7394842;19;20212;-77
2022/08/11 05:34:53;;;;;;;2.60;2.20;;;;;17.80;94649.00;;;;7395485;19;20196;-77
2022/08/11 05:58:40;;;;;;;4.35;2.67;;;;;18.50;94645.00;;;;7390174;19;20619;-78
2022/08/11 06:01:22;;;;;;;4.15;2.15;;;;;18.70;94648.00;;;;7391526;19;20151;-78
2022/08/11 06:06:55;;;;;;;2.47;2.22;;;;;18.90;94657.00;;;;7391666;19;20157;-78
2022/08/11 06:09:42;;;;;;;6.70;2.60;;;;;19.10;94645.00;;;;7389136;19;20666;-79
2022/08/11 06:12:28;;;;;;;5.35;2.45;;;;;19.30;94654.00;;;;7387757;19;20157;-78
2022/08/11 06:15:08;;;;;;;3.47;2.67;;;;;19.50;94647.00;;;;7391543;19;20157;-79
2022/08/11 06:17:56;;;;;;;4.28;2.53;;;;;19.50;94658.00;;;;7392383;19;20153;-79
2022/08/11 06:20:49;;;;;;;3.95;2.85;;;;;19.60;94647.00;;;;7390679;19;20156;-77
2022/08/11 06:23:32;;;;;;;4.47;2.40;;;;;19.80;94653.00;;;;7391488;19;20655;-78
2022/08/11 06:26:09;;;;;;;6.63;2.63;;;;;19.80;94655.00;;;;7390926;19;20128;-77
2022/08/11 06:29:01;;;;;;;5.25;2.67;;;;;19.80;94656.00;;;;7393111;19;20671;-79
2022/08/11 06:31:35;;;;;;;3.17;2.50;;;;;19.80;94651.00;;;;7391350;19;20173;-79
2022/08/11 06:34:52;;;;;;;4.25;2.70;;;;;19.70;94658.00;;;;7391122;19;20144;-78
2022/08/11 06:37:48;;;;;;;3.42;2.33;;;;;19.90;94654.00;;;;7391492;19;20216;-78
2022/08/11 06:44:04;;;;;;;4.45;2.40;;;;;20.30;94658.00;;;;7392180;19;20152;-78
2022/08/11 06:46:54;;;;;;;2.53;2.30;;;;;20.30;94664.00;;;;7390881;19;20149;-78
2022/08/11 06:52:39;;;;;;;8.68;2.50;;;;;20.70;94658.00;;;;7394224;19;20160;-78
2022/08/11 07:01:34;;;;;;;5.38;2.30;;;;;21.10;94654.00;;;;7397132;19;20153;-79
2022/08/11 07:04:29;;;;;;;3.40;2.45;;;;;21.50;94649.00;;;;7395641;19;20152;-78
2022/08/11 07:16:43;;;;;;;3.00;2.55;;;;;22.10;94656.00;;;;7394683;19;20152;-78
2022/08/11 07:31:24;;;;;;;2.72;2.22;;;;;22.60;94658.00;;;;7396967;19;20141;-76
2022/08/11 07:34:26;;;;;;;9.20;3.08;;;;;22.50;94663.00;;;;7394442;19;20153;-78
2022/08/11 07:36:57;;;;;;;6.13;2.80;;;;;22.50;94650.00;;;;7396170;19;20501;-79
2022/08/11 07:39:34;;;;;;;6.85;2.47;;;;;22.70;94662.00;;;;7397847;19;20132;-79
2022/08/11 07:42:17;;;;;;;5.85;2.45;;;;;23.10;94662.00;;;;7397729;19;20132;-77
2022/08/11 07:53:51;;;;;;;3.33;2.50;;;;;23.80;94652.00;;;;7392774;19;20161;-77
2022/08/11 07:56:45;;;;;;;6.20;2.60;;;;;23.90;94648.00;;;;7397005;19;20709;-78
2022/08/11 08:19:50;;;;;;;5.45;2.50;;;;;24.30;94644.00;;;;7394034;19;20145;-76
2022/08/11 08:22:23;;;;;;;4.70;2.65;;;;;24.60;94641.00;;;;7395144;19;20149;-77
2022/08/11 08:25:07;;;;;;;3.30;2.40;;;;;24.60;94643.00;;;;7388501;19;20157;-77
2022/08/11 08:27:37;;;;;;;4.35;2.58;;;;;24.50;94654.00;;;;7391919;19;20140;-76
2022/08/11 08:33:01;;;;;;;4.93;2.70;;;;;24.70;94644.00;;;;7392653;19;20664;-75
2022/08/11 08:35:40;;;;;;;6.50;2.30;;;;;25.00;94645.00;;;;7396013;19;20117;-76
2022/08/11 08:38:23;;;;;;;6.05;2.22;;;;;25.20;94643.00;;;;7392435;19;20179;-75
2022/08/11 08:41:01;;;;;;;4.95;2.20;;;;;25.10;94654.00;;;;7392974;19;20626;-74
2022/08/11 08:43:34;;;;;;;5.65;2.42;;;;;25.30;94654.00;;;;7394031;19;20149;-77
2022/08/11 08:46:26;;;;;;;4.30;2.50;;;;;25.30;94654.00;;;;7391068;19;20639;-77
2022/08/11 08:49:00;;;;;;;4.05;2.35;;;;;25.50;94657.00;;;;7392764;19;20120;-76
2022/08/11 08:51:39;;;;;;;6.07;2.88;;;;;25.50;94664.00;;;;7394339;19;20224;-79
2022/08/11 08:54:35;;;;;;;2.67;2.25;;;;;25.40;94654.00;;;;7394221;19;20627;-76
2022/08/11 08:57:12;;;;;;;3.08;2.78;;;;;25.40;94660.00;;;;7394008;19;20192;-77
2022/08/11 08:59:43;;;;;;;4.05;2.50;;;;;24.70;94684.00;;;;7394281;19;20179;-77
2022/08/11 09:02:33;;;;;;;3.78;2.47;;;;;24.70;94667.00;;;;7395403;19;20153;-78
2022/08/11 09:05:06;;;;;;;6.13;2.85;;;;;25.10;94660.00;;;;7392138;19;20148;-79
2022/08/11 09:07:57;;;;;;;4.85;2.72;;;;;25.20;94664.00;;;;7391386;19;20576;-77
2022/08/11 09:11:48;;;;;;;6.07;2.90;;;;;25.60;94658.00;;;;7397308;19;20132;-78
2022/08/11 09:13:45;;;;;;;2.20;2.00;;;;;25.90;94668.00;;;;7395002;19;20615;-77
2022/08/11 09:16:38;;;;;;;4.35;2.45;;;;;25.80;94658.00;;;;7395288;19;20144;-77
2022/08/11 09:19:19;;;;;;;4.30;2.47;;;;;25.90;94660.00;;;;7392723;19;20208;-79
2022/08/11 09:27:42;;;;;;;10.00;2.30;;;;;26.40;94662.00;;;;7391912;19;20548;-78
2022/08/11 09:30:34;;;;;;;4.72;2.20;;;;;26.00;94662.00;;;;7392297;19;20582;-79
2022/08/11 09:33:14;;;;;;;3.67;2.20;;;;;26.70;94668.00;;;;7391314;19;20153;-79
2022/08/11 09:42:01;;;;;;;3.40;2.28;;;;;26.30;94667.00;;;;7389128;19;20595;-77
2022/08/11 09:44:48;;;;;;;5.57;2.55;;;;;26.70;94680.00;;;;7390743;19;20137;-77
2022/08/11 09:47:26;;;;;;;3.60;2.30;;;;;26.70;94665.00;;;;7393087;19;20133;-77
2022/08/11 09:50:01;;;;;;;2.63;2.20;;;;;26.80;94658.00;;;;7391540;19;20608;-77
2022/08/11 09:52:44;;;;;;;2.88;2.08;;;;;27.20;94666.00;;;;7393823;19;20129;-77
2022/08/11 09:55:40;;;;;;;9.98;2.70;;;;;27.00;94658.00;;;;7392263;19;20147;-77
2022/08/11 09:58:18;;;;;;;7.97;2.50;;;;;26.60;94668.00;;;;7392275;19;20185;-78
2022/08/11 10:01:06;;;;;;;7.35;2.45;;;;;26.30;94657.00;;;;7392586;19;20125;-76
2022/08/11 10:03:42;;;;;;;4.90;2.25;;;;;26.50;94655.00;;;;7392898;19;20136;-75
2022/08/11 10:09:17;;;;;;;7.40;2.40;;;;;26.60;94668.00;;;;7390606;19;20159;-79
2022/08/11 10:11:57;;;;;;;2.60;2.38;;;;;26.50;94662.00;;;;7392397;19;20145;-74
2022/08/11 10:17:35;;;;;;;4.20;2.58;;;;;26.60;94661.00;;;;7393598;19;20161;-78
2022/08/11 10:20:13;;;;;;;6.53;2.15;;;;;26.80;94658.00;;;;7390191;19;20146;-80
2022/08/11 10:28:28;;;;;;;3.30;2.20;;;;;27.00;94647.00;;;;7397858;19;20133;-76
2022/08/11 10:34:24;;;;;;;4.60;2.30;;;;;27.80;94638.00;;;;7399983;19;20203;-79
2022/08/11 10:37:02;;;;;;;3.38;2.20;;;;;28.00;94649.00;;;;7399056;19;20162;-78
2022/08/11 10:39:30;;;;;;;2.97;2.25;;;;;28.40;94637.00;;;;7398451;19;20173;-78
2022/08/11 10:48:06;;;;;;;3.10;1.98;;;;;28.50;94637.00;;;;7402153;19;20586;-77
2022/08/11 10:59:32;;;;;;;2.28;1.88;;;;;28.80;94626.00;;;;7398293;19;20132;-77
2022/08/11 11:02:07;;;;;;;2.83;2.17;;;;;28.80;94626.00;;;;7396211;19;20207;-78
2022/08/11 11:04:58;;;;;;;2.85;2.30;;;;;29.00;94620.00;;;;7395700;19;20500;-77
2022/08/11 11:08:57;;;;;;;2.90;2.20;;;;;29.20;94622.00;;;;7399014;19;20136;-78
2022/08/11 11:11:11;;;;;;;4.20;1.92;;;;;29.40;94618.00;;;;7395554;19;20175;-78
2022/08/11 11:19:39;;;;;;;4.15;2.08;;;;;29.40;94617.00;;;;7394907;19;20619;-79
2022/08/11 11:25:42;;;;;;;2.53;1.90;;;;;29.70;94612.00;;;;7397870;19;20201;-78
2022/08/11 11:28:49;;;;;;;7.60;2.20;;;;;29.40;94609.00;;;;7395366;19;20149;-77
2022/08/11 11:31:35;;;;;;;3.50;2.20;;;;;29.30;94602.00;;;;7396341;19;20145;-78
2022/08/11 11:34:36;;;;;;;2.33;2.00;;;;;29.50;94603.00;;;;7397761;19;20168;-77
2022/08/11 11:37:22;;;;;;;3.92;2.30;;;;;29.60;94605.00;;;;7395672;19;20632;-77
2022/08/11 11:39:51;;;;;;;2.42;2.10;;;;;30.00;94602.00;;;;7394981;19;20631;-77
2022/08/11 11:42:28;;;;;;;2.30;2.10;;;;;30.00;94597.00;;;;7393448;19;20160;-79
2022/08/11 11:44:59;;;;;;;2.95;2.20;;;;;29.40;94595.00;;;;7392377;19;20129;-77
2022/08/11 11:47:38;;;;;;;4.65;2.20;;;;;29.60;94599.00;;;;7399246;19;20693;-78
2022/08/11 11:50:08;;;;;;;3.13;2.33;;;;;29.60;94593.00;;;;7393318;19;20144;-76
2022/08/11 11:52:43;;;;;;;2.40;2.20;;;;;29.70;94594.00;;;;7397662;19;20137;-77
2022/08/11 11:55:11;;;;;;;4.53;2.35;;;;;29.80;94598.00;;;;7396626;19;20159;-77
2022/08/11 12:03:20;;;;;;;2.50;2.00;;;;;29.30;94582.00;;;;7397265;19;20599;-79
2022/08/11 12:05:59;;;;;;;3.30;2.15;;;;;29.40;94585.00;;;;7393716;19;20147;-77
2022/08/11 12:08:37;;;;;;;5.97;2.22;;;;;29.90;94584.00;;;;7394778;19;20148;-79
2022/08/11 12:14:04;;;;;;;7.55;2.53;;;;;30.00;94595.00;;;;7397315;19;20170;-78
2022/08/11 12:16:43;;;;;;;3.25;2.20;;;;;29.80;94583.00;;;;7394795;19;20832;-79
2022/08/11 12:19:21;;;;;;;5.43;2.17;;;;;29.40;94582.00;;;;7397824;19;20148;-79
2022/08/11 12:27:46;;;;;;;3.90;2.10;;;;;29.80;94583.00;;;;7400285;19;20200;-79
2022/08/11 12:30:14;;;;;;;6.40;2.10;;;;;29.90;94577.00;;;;7396833;19;20174;-78
2022/08/11 12:32:45;;;;;;;3.85;2.40;;;;;29.90;94583.00;;;;7395319;19;20152;-77
2022/08/11 12:35:20;;;;;;;5.15;2.30;;;;;30.20;94573.00;;;;7400619;19;20159;-78
2022/08/11 12:37:58;;;;;;;3.25;2.45;;;;;30.50;94579.00;;;;7398102;19;20275;-78
2022/08/11 12:46:43;;;;;;;5.43;2.10;;;;;29.90;94583.00;;;;7389495;19;20165;-79
2022/08/11 12:52:22;;;;;;;3.65;2.28;;;;;29.30;94571.00;;;;7393906;19;20501;-77
2022/08/11 12:58:37;;;;;;;3.10;2.10;;;;;29.30;94561.00;;;;7390137;19;20239;-79
2022/08/11 13:06:46;;;;;;;4.90;2.25;;;;;29.70;94559.00;;;;7394345;19;20132;-79
2022/08/11 13:09:40;;;;;;;3.78;2.03;;;;;29.70;94567.00;;;;7393304;19;20165;-79
2022/08/11 13:15:16;;;;;;;2.45;2.20;;;;;29.50;94552.00;;;;7392190;19;20248;-79
2022/08/11 13:17:48;;;;;;;2.30;2.10;;;;;29.30;94552.00;;;;7390276;19;20148;-80
2022/08/11 13:20:29;;;;;;;4.97;2.35;;;;;29.60;94549.00;;;;7391917;19;20148;-82
2022/08/11 13:22:58;;;;;;;2.53;2.28;;;;;29.70;94547.00;;;;7392477;19;20991;-80
2022/08/11 13:25:35;;;;;;;6.55;2.30;;;;;29.90;94540.00;;;;7389617;19;20154;-80
2022/08/11 13:28:07;;;;;;;4.28;2.30;;;;;29.60;94543.00;;;;7392894;19;20153;-78
2022/08/11 13:33:29;;;;;;;2.15;1.98;;;;;29.60;94540.00;;;;7391112;19;20173;-79
2022/08/11 13:36:06;;;;;;;6.85;2.20;;;;;29.50;94540.00;;;;7394285;19;20133;-77
2022/08/11 13:38:42;;;;;;;5.65;2.20;;;;;29.50;94536.00;;;;7393080;19;20144;-77
2022/08/11 13:44:06;;;;;;;5.65;2.30;;;;;29.80;94547.00;;;;7390441;19;20137;-79
2022/08/11 13:46:48;;;;;;;6.40;2.20;;;;;29.50;94534.00;;;;7388696;19;20512;-77
2022/08/11 13:49:23;;;;;;;5.53;2.35;;;;;29.30;94529.00;;;;7391444;19;20627;-79
2022/08/11 13:52:14;;;;;;;4.55;2.20;;;;;29.10;94533.00;;;;7392967;19;20133;-79
2022/08/11 13:54:56;;;;;;;2.95;2.30;;;;;29.20;94530.00;;;;7389708;19;20140;-80
2022/08/11 13:57:34;;;;;;;2.33;1.83;;;;;29.10;94521.00;;;;7391554;19;20153;-81
2022/08/11 14:00:34;;;;;;;5.43;2.30;;;;;29.40;94524.00;;;;7391856;19;20148;-79
2022/08/11 14:03:41;;;;;;;5.32;2.15;;;;;29.20;94520.00;;;;7396491;19;20191;-78
2022/08/11 14:06:47;;;;;;;4.05;2.38;;;;;29.30;94518.00;;;;7396882;19;20148;-82
2022/08/11 14:09:48;;;;;;;3.33;2.53;;;;;29.70;94519.00;;;;7399722;19;20180;-80
2022/08/11 14:15:34;;;;;;;5.25;2.13;;;;;29.10;94514.00;;;;7402045;19;20219;-78
2022/08/11 14:18:21;;;;;;;4.07;2.00;;;;;29.00;94508.00;;;;7401811;19;20204;-77
2022/08/11 14:23:48;;;;;;;3.35;2.00;;;;;28.90;94502.00;;;;7399946;19;20152;-79
2022/08/11 14:26:26;;;;;;;2.70;1.92;;;;;28.80;94503.00;;;;7396813;19;20144;-77
2022/08/11 14:29:07;;;;;;;4.20;2.10;;;;;28.60;94506.00;;;;7399732;19;20519;-80
2022/08/11 14:31:52;;;;;;;4.68;2.28;;;;;29.10;94494.00;;;;7398192;19;20129;-79
2022/08/11 14:34:28;;;;;;;6.88;2.20;;;;;29.00;94487.00;;;;7398622;19;20181;-77
2022/08/11 14:37:14;;;;;;;5.15;2.20;;;;;29.30;94484.00;;;;7397693;19;20600;-78
2022/08/11 14:39:53;;;;;;;1.77;1.67;;;;;28.90;94484.00;;;;7396878;19;20160;-77
2022/08/11 14:48:27;;;;;;;4.55;1.92;;;;;29.00;94487.00;;;;7399766;19;20128;-77
2022/08/11 14:50:57;;;;;;;3.60;1.85;;;;;28.80;94478.00;;;;7398178;19;20610;-78
2022/08/11 14:53:32;;;;;;;5.28;1.80;;;;;28.80;94482.00;;;;7397058;19;20128;-77
2022/08/11 14:59:01;;;;;;;3.63;2.30;;;;;28.40;94491.00;;;;7397879;19;20167;-78
2022/08/11 15:04:35;;;;;;;2.65;1.95;;;;;28.80;94480.00;;;;7399273;19;20152;-78
2022/08/11 15:07:35;;;;;;;3.08;2.10;;;;;28.90;94476.00;;;;7390396;19;20836;-77
2022/08/11 15:12:07;;;;;;;3.67;1.75;;;;;28.50;94476.00;;;;7394016;19;20156;-78
2022/08/11 15:13:52;;;;;;;7.57;2.42;;;;;28.30;94478.00;;;;7393556;19;20149;-79
2022/08/11 15:19:31;;;;;;;3.67;1.90;;;;;28.40;94475.00;;;;7396489;19;20146;-78
2022/08/11 15:24:58;;;;;;;3.10;1.80;;;;;28.40;94471.00;;;;7397137;19;20148;-79
2022/08/11 15:39:14;;;;;;;1.88;1.55;;;;;28.00;94463.00;;;;7393130;19;20128;-77
2022/08/11 15:48:06;;;;;;;6.40;2.13;;;;;27.40;94454.00;;;;7393091;19;20150;-77
2022/08/11 15:50:45;;;;;;;2.08;1.60;;;;;27.40;94457.00;;;;7383907;19;20760;-77
2022/08/11 15:53:39;;;;;;;3.38;2.00;;;;;27.40;94449.00;;;;7391756;19;20155;-78
2022/08/11 15:56:28;;;;;;;2.53;1.80;;;;;27.30;94448.00;;;;7389483;19;20603;-77
2022/08/11 16:05:05;;;;;;;7.63;1.92;;;;;27.30;94458.00;;;;7388773;19;20160;-78
2022/08/11 16:08:01;;;;;;;6.88;2.10;;;;;27.10;94451.00;;;;7390264;19;20156;-78
2022/08/11 16:10:36;;;;;;;1.90;1.80;;;;;27.00;94456.00;;;;7389064;19;20153;-78
2022/08/11 16:16:14;;;;;;;5.35;2.00;;;;;27.00;94450.00;;;;7388283;19;20212;-77
2022/08/11 16:18:55;;;;;;;3.50;1.85;;;;;27.00;94447.00;;;;7389562;19;20157;-78
2022/08/11 16:21:34;;;;;;;3.60;1.85;;;;;27.00;94442.00;;;;7389842;19;20149;-77
2022/08/11 16:24:16;;;;;;;6.68;2.28;;;;;27.00;94445.00;;;;7388990;19;20172;-77
2022/08/11 16:27:05;;;;;;;4.18;1.98;;;;;26.90;94438.00;;;;7387727;19;20632;-78
2022/08/11 16:29:47;;;;;;;4.60;1.77;;;;;26.70;94442.00;;;;7389603;19;20539;-77
2022/08/11 16:32:20;;;;;;;2.20;2.00;;;;;26.90;94442.00;;;;7391514;19;20153;-77
2022/08/11 16:40:43;;;;;;;2.50;1.90;;;;;26.50;94439.00;;;;7396605;19;20168;-78
2022/08/11 16:49:28;;;;;;;2.13;1.80;;;;;26.20;94441.00;;;;7393010;19;20150;-78
2022/08/11 16:52:10;;;;;;;5.03;1.98;;;;;26.20;94433.00;;;;7393798;19;20200;-80
2022/08/11 16:54:40;;;;;;;4.25;2.30;;;;;26.30;94437.00;;;;7396065;19;20164;-79
2022/08/11 17:00:14;;;;;;;6.63;1.80;;;;;26.00;94438.00;;;;7398202;19;20498;-78
2022/08/11 17:14:54;;;;;;;6.35;2.17;;;;;25.40;94426.00;;;;7397023;19;20516;-79
2022/08/11 17:17:29;;;;;;;3.42;1.70;;;;;25.50;94435.00;;;;7393841;19;20583;-78
2022/08/11 17:20:11;;;;;;;2.30;1.80;;;;;25.60;94423.00;;;;7393132;19;20164;-79
2022/08/11 17:25:54;;;;;;;2.85;1.70;;;;;25.50;94427.00;;;;7391603;19;20133;-80
2022/08/11 17:28:33;;;;;;;2.30;2.05;;;;;25.30;94426.00;;;;7389098;19;20156;-77
2022/08/11 17:36:54;;;;;;;2.92;1.80;;;;;24.90;94417.00;;;;7390039;19;20120;-78
2022/08/11 17:39:27;;;;;;;3.05;1.80;;;;;24.80;94422.00;;;;7390802;19;20144;-78
2022/08/11 17:50:31;;;;;;;5.15;1.98;;;;;24.40;94417.00;;;;7387377;19;20289;-77
2022/08/11 18:05:04;;;;;;;3.25;2.28;;;;;23.90;94421.00;;;;7387037;19;20140;-79
